JST83 YPDN-WADD
Flight info
| Callsign | JST83 |
|---|---|
| Flight time | N/A |
| Altitude | 36000 |
| Route | JULIE DCT VIROB DCT KILIK DCT ALEGO DCT KPG DCT BENOA |
| Aircraft | A20N/M-SDE2E3FGHIRWXY/LB1 |
Departure
| Time | 2026-04-08 13:03 |
|---|---|
| Airport | Darwin International Airport / RAAF Darwin (YPDN) |
Arrival
| Time | N/A |
|---|---|
| Airport | Denpasar I Gusti Ngurah Rai International Airport (WADD) |
| Time | Latitude | Longitude | Altitude | Speed | Heading |
|---|---|---|---|---|---|
| 2026-04-08 12:29 | -12.40885 | 130.87739 | 93 ft | 0 kts | 16° |
| 2026-04-08 12:52 | -12.40894 | 130.87736 | 93 ft | 2 kts | 17° |
| 2026-04-08 12:52 | -12.40910 | 130.87731 | 94 ft | 2 kts | 18° |
| 2026-04-08 12:53 | -12.40925 | 130.87726 | 95 ft | 2 kts | 21° |
| 2026-04-08 12:53 | -12.40941 | 130.87721 | 95 ft | 2 kts | 353° |
| 2026-04-08 12:53 | -12.40956 | 130.87726 | 95 ft | 2 kts | 308° |
| 2026-04-08 12:53 | -12.40963 | 130.87741 | 95 ft | 2 kts | 283° |
| 2026-04-08 12:54 | -12.40965 | 130.87748 | 95 ft | 0 kts | 280° |
| 2026-04-08 12:57 | -12.40960 | 130.87723 | 95 ft | 7 kts | 280° |
| 2026-04-08 12:57 | -12.40960 | 130.87656 | 95 ft | 11 kts | 250° |
| 2026-04-08 12:57 | -12.41014 | 130.87597 | 97 ft | 10 kts | 207° |
| 2026-04-08 12:57 | -12.41017 | 130.87596 | 97 ft | 0 kts | 205° |
| 2026-04-08 12:58 | -12.41020 | 130.87595 | 98 ft | 2 kts | 204° |
| 2026-04-08 12:58 | -12.41051 | 130.87584 | 99 ft | 6 kts | 197° |
| 2026-04-08 12:58 | -12.41095 | 130.87569 | 101 ft | 7 kts | 198° |
| 2026-04-08 12:59 | -12.41141 | 130.87553 | 102 ft | 7 kts | 199° |
| 2026-04-08 12:59 | -12.41193 | 130.87534 | 103 ft | 9 kts | 199° |
| 2026-04-08 12:59 | -12.41248 | 130.87498 | 103 ft | 11 kts | 238° |
| 2026-04-08 12:59 | -12.41238 | 130.87419 | 101 ft | 13 kts | 289° |
| 2026-04-08 13:00 | -12.41205 | 130.87319 | 102 ft | 17 kts | 288° |
| 2026-04-08 13:00 | -12.41166 | 130.87202 | 102 ft | 18 kts | 290° |
| 2026-04-08 13:00 | -12.41124 | 130.87078 | 103 ft | 19 kts | 289° |
| 2026-04-08 13:00 | -12.41076 | 130.86938 | 102 ft | 22 kts | 289° |
| 2026-04-08 13:01 | -12.41027 | 130.86795 | 105 ft | 18 kts | 289° |
| 2026-04-08 13:01 | -12.40993 | 130.86685 | 106 ft | 16 kts | 280° |
| 2026-04-08 13:01 | -12.41002 | 130.86579 | 106 ft | 10 kts | 261° |
| 2026-04-08 13:01 | -12.40960 | 130.86544 | 107 ft | 10 kts | 23° |
| 2026-04-08 13:02 | -12.40954 | 130.86589 | 106 ft | 0 kts | 109° |
| 2026-04-08 13:02 | -12.40963 | 130.86614 | 105 ft | 12 kts | 109° |
| 2026-04-08 13:02 | -12.41054 | 130.86874 | 103 ft | 73 kts | 109° |
| 2026-04-08 13:03 | -12.41288 | 130.87565 | 103 ft | 130 kts | 108° |
| 2026-04-08 13:03 | -12.41628 | 130.88579 | 226 ft | 159 kts | 108° |
| 2026-04-08 13:03 | -12.41951 | 130.89629 | 867 ft | 158 kts | 107° |
| 2026-04-08 13:03 | -12.42286 | 130.90731 | 1360 ft | 165 kts | 106° |
| 2026-04-08 13:04 | -12.42645 | 130.91852 | 1940 ft | 169 kts | 107° |
| 2026-04-08 13:04 | -12.43034 | 130.93029 | 2319 ft | 186 kts | 107° |
| 2026-04-08 13:04 | -12.43478 | 130.94344 | 2738 ft | 205 kts | 109° |
| 2026-04-08 13:04 | -12.43986 | 130.95783 | 3156 ft | 227 kts | 109° |
| 2026-04-08 13:05 | -12.44548 | 130.97372 | 3630 ft | 248 kts | 109° |
| 2026-04-08 13:05 | -12.45127 | 130.99097 | 4242 ft | 262 kts | 102° |
| 2026-04-08 13:05 | -12.45163 | 131.00942 | 5149 ft | 262 kts | 77° |
| 2026-04-08 13:05 | -12.44406 | 131.02636 | 6026 ft | 267 kts | 52° |
| 2026-04-08 13:06 | -12.42954 | 131.03843 | 6825 ft | 275 kts | 26° |
| 2026-04-08 13:06 | -12.41092 | 131.04329 | 7277 ft | 287 kts | 5° |
| 2026-04-08 13:06 | -12.39109 | 131.04336 | 7394 ft | 284 kts | 359° |
| 2026-04-08 13:06 | -12.37136 | 131.04238 | 7501 ft | 285 kts | 358° |
| 2026-04-08 13:07 | -12.35143 | 131.04135 | 7634 ft | 287 kts | 359° |
| 2026-04-08 13:07 | -12.33151 | 131.04046 | 7728 ft | 286 kts | 356° |
| 2026-04-08 13:07 | -12.31232 | 131.03510 | 7828 ft | 289 kts | 334° |
| 2026-04-08 13:07 | -12.29605 | 131.02293 | 7938 ft | 292 kts | 317° |
| 2026-04-08 13:08 | -12.28322 | 131.00684 | 8056 ft | 293 kts | 301° |
| 2026-04-08 13:08 | -12.27490 | 130.98777 | 8220 ft | 296 kts | 288° |
| 2026-04-08 13:08 | -12.26853 | 130.96796 | 8869 ft | 297 kts | 289° |
| 2026-04-08 13:08 | -12.26191 | 130.94805 | 9831 ft | 296 kts | 289° |
| 2026-04-08 13:09 | -12.25514 | 130.92796 | 10437 ft | 307 kts | 288° |
| 2026-04-08 13:09 | -12.24791 | 130.90653 | 10662 ft | 330 kts | 288° |
| 2026-04-08 13:09 | -12.24019 | 130.88368 | 10970 ft | 348 kts | 288° |
| 2026-04-08 13:09 | -12.23249 | 130.86006 | 11654 ft | 351 kts | 285° |
| 2026-04-08 13:10 | -12.22754 | 130.83552 | 12384 ft | 354 kts | 276° |
| 2026-04-08 13:10 | -12.22615 | 130.81029 | 13076 ft | 358 kts | 268° |
| 2026-04-08 13:10 | -12.22647 | 130.78474 | 13780 ft | 361 kts | 269° |
| 2026-04-08 13:10 | -12.22669 | 130.75930 | 14361 ft | 365 kts | 269° |
| 2026-04-08 13:11 | -12.22685 | 130.73318 | 14921 ft | 370 kts | 269° |
| 2026-04-08 13:11 | -12.22700 | 130.70666 | 15472 ft | 375 kts | 269° |
| 2026-04-08 13:11 | -12.22713 | 130.67988 | 16025 ft | 379 kts | 269° |
| 2026-04-08 13:11 | -12.22727 | 130.65272 | 16549 ft | 384 kts | 269° |
| 2026-04-08 13:12 | -12.22742 | 130.62527 | 17083 ft | 389 kts | 269° |
| 2026-04-08 13:12 | -12.22770 | 130.56942 | 18101 ft | 398 kts | 269° |
| 2026-04-08 13:12 | -12.22555 | 130.54112 | 18559 ft | 402 kts | 279° |
| 2026-04-08 13:13 | -12.21826 | 130.51388 | 19014 ft | 405 kts | 291° |
| 2026-04-08 13:13 | -12.20604 | 130.48787 | 19472 ft | 408 kts | 298° |
| 2026-04-08 13:13 | -12.19252 | 130.46222 | 19908 ft | 411 kts | 298° |
| 2026-04-08 13:13 | -12.17896 | 130.43631 | 20376 ft | 414 kts | 298° |
| 2026-04-08 13:14 | -12.16537 | 130.41025 | 20810 ft | 418 kts | 298° |
| 2026-04-08 13:14 | -12.15168 | 130.38395 | 21259 ft | 421 kts | 298° |
| 2026-04-08 13:14 | -12.13789 | 130.35747 | 21708 ft | 424 kts | 298° |
| 2026-04-08 13:14 | -12.12417 | 130.33112 | 22128 ft | 427 kts | 298° |
| 2026-04-08 13:15 | -12.11018 | 130.30428 | 22548 ft | 430 kts | 298° |
| 2026-04-08 13:15 | -12.09607 | 130.27722 | 22978 ft | 433 kts | 299° |
| 2026-04-08 13:15 | -12.08187 | 130.24998 | 23405 ft | 436 kts | 299° |
| 2026-04-08 13:15 | -12.06755 | 130.22254 | 23782 ft | 439 kts | 299° |
| 2026-04-08 13:16 | -12.05318 | 130.19500 | 24142 ft | 441 kts | 299° |
| 2026-04-08 13:16 | -12.03872 | 130.16731 | 24505 ft | 443 kts | 299° |
| 2026-04-08 13:16 | -12.02418 | 130.13946 | 24863 ft | 445 kts | 299° |
| 2026-04-08 13:16 | -12.00958 | 130.11152 | 25222 ft | 447 kts | 299° |
| 2026-04-08 13:17 | -11.99490 | 130.08343 | 25569 ft | 449 kts | 299° |
| 2026-04-08 13:17 | -11.98036 | 130.05562 | 25913 ft | 451 kts | 299° |
| 2026-04-08 13:17 | -11.96553 | 130.02728 | 26245 ft | 453 kts | 299° |
| 2026-04-08 13:17 | -11.95064 | 129.99880 | 26579 ft | 455 kts | 299° |
| 2026-04-08 13:18 | -11.93569 | 129.97023 | 26904 ft | 458 kts | 299° |
| 2026-04-08 13:18 | -11.92064 | 129.94149 | 27224 ft | 460 kts | 299° |
| 2026-04-08 13:18 | -11.90554 | 129.91265 | 27534 ft | 462 kts | 299° |
| 2026-04-08 13:18 | -11.89038 | 129.88370 | 27841 ft | 464 kts | 299° |
| 2026-04-08 13:19 | -11.87512 | 129.85458 | 28145 ft | 466 kts | 299° |
| 2026-04-08 13:19 | -11.85982 | 129.82538 | 28438 ft | 468 kts | 299° |
| 2026-04-08 13:19 | -11.84464 | 129.79643 | 28723 ft | 470 kts | 299° |
| 2026-04-08 13:19 | -11.82919 | 129.76697 | 29005 ft | 472 kts | 299° |
| 2026-04-08 13:20 | -11.81368 | 129.73739 | 29279 ft | 474 kts | 298° |
| 2026-04-08 13:20 | -11.79990 | 129.70676 | 29544 ft | 476 kts | 291° |
| 2026-04-08 13:20 | -11.78966 | 129.67453 | 29823 ft | 479 kts | 285° |
| 2026-04-08 13:20 | -11.78231 | 129.64130 | 30083 ft | 481 kts | 283° |
| 2026-04-08 13:21 | -11.77509 | 129.60788 | 30326 ft | 483 kts | 283° |
| 2026-04-08 13:21 | -11.76779 | 129.57443 | 30575 ft | 484 kts | 283° |
| 2026-04-08 13:21 | -11.76042 | 129.54083 | 30822 ft | 486 kts | 283° |
| 2026-04-08 13:21 | -11.75313 | 129.50759 | 31086 ft | 487 kts | 283° |
| 2026-04-08 13:22 | -11.74573 | 129.47387 | 31414 ft | 487 kts | 283° |
| 2026-04-08 13:22 | -11.73834 | 129.44022 | 31763 ft | 486 kts | 283° |
| 2026-04-08 13:22 | -11.73097 | 129.40662 | 32108 ft | 485 kts | 283° |
| 2026-04-08 13:22 | -11.72360 | 129.37310 | 32426 ft | 484 kts | 284° |
| 2026-04-08 13:23 | -11.71625 | 129.33963 | 32753 ft | 483 kts | 284° |
| 2026-04-08 13:23 | -11.70891 | 129.30625 | 33068 ft | 482 kts | 284° |
| 2026-04-08 13:23 | -11.70157 | 129.27290 | 33373 ft | 481 kts | 284° |
| 2026-04-08 13:23 | -11.69423 | 129.23960 | 33674 ft | 481 kts | 284° |
| 2026-04-08 13:24 | -11.68701 | 129.20682 | 33955 ft | 480 kts | 284° |
| 2026-04-08 13:24 | -11.67969 | 129.17362 | 34197 ft | 479 kts | 284° |
| 2026-04-08 13:24 | -11.67238 | 129.14047 | 34439 ft | 479 kts | 284° |
| 2026-04-08 13:24 | -11.66506 | 129.10733 | 34676 ft | 478 kts | 284° |
| 2026-04-08 13:25 | -11.65776 | 129.07427 | 34918 ft | 477 kts | 284° |
| 2026-04-08 13:25 | -11.65047 | 129.04127 | 35142 ft | 477 kts | 284° |
| 2026-04-08 13:25 | -11.64317 | 129.00826 | 35345 ft | 477 kts | 284° |
| 2026-04-08 13:25 | -11.63587 | 128.97528 | 35589 ft | 476 kts | 284° |
| 2026-04-08 13:26 | -11.62858 | 128.94237 | 35818 ft | 476 kts | 284° |
| 2026-04-08 13:26 | -11.62139 | 128.90991 | 35934 ft | 475 kts | 284° |
| 2026-04-08 13:26 | -11.61412 | 128.87709 | 35968 ft | 474 kts | 284° |
| 2026-04-08 13:27 | -11.59959 | 128.81158 | 35972 ft | 473 kts | 284° |
| 2026-04-08 13:27 | -11.58505 | 128.74611 | 35973 ft | 473 kts | 284° |
| 2026-04-08 13:28 | -11.57050 | 128.68067 | 35975 ft | 473 kts | 284° |
| 2026-04-08 13:28 | -11.55604 | 128.61569 | 35972 ft | 473 kts | 284° |
| 2026-04-08 13:29 | -11.54147 | 128.55030 | 35975 ft | 473 kts | 284° |
| 2026-04-08 13:29 | -11.52690 | 128.48496 | 35975 ft | 473 kts | 284° |
| 2026-04-08 13:30 | -11.51230 | 128.41961 | 35969 ft | 472 kts | 284° |
| 2026-04-08 13:30 | -11.49780 | 128.35476 | 35971 ft | 472 kts | 284° |
| 2026-04-08 13:31 | -11.48318 | 128.28945 | 35971 ft | 472 kts | 284° |
| 2026-04-08 13:31 | -11.46856 | 128.22422 | 35972 ft | 472 kts | 284° |
| 2026-04-08 13:32 | -11.45393 | 128.15898 | 35972 ft | 472 kts | 284° |
| 2026-04-08 13:32 | -11.43938 | 128.09418 | 35973 ft | 472 kts | 284° |
| 2026-04-08 13:33 | -11.42487 | 128.02901 | 35971 ft | 472 kts | 283° |
| 2026-04-08 13:33 | -11.41149 | 127.96355 | 35973 ft | 472 kts | 283° |
| 2026-04-08 13:34 | -11.39817 | 127.89806 | 35973 ft | 471 kts | 283° |
| 2026-04-08 13:34 | -11.38481 | 127.83310 | 35972 ft | 471 kts | 283° |
| 2026-04-08 13:35 | -11.37132 | 127.76782 | 35972 ft | 471 kts | 283° |
| 2026-04-08 13:35 | -11.35781 | 127.70251 | 35968 ft | 471 kts | 283° |
| 2026-04-08 13:36 | -11.34430 | 127.63728 | 35974 ft | 470 kts | 283° |
| 2026-04-08 13:36 | -11.33086 | 127.57249 | 35970 ft | 470 kts | 283° |
| 2026-04-08 13:37 | -11.31734 | 127.50734 | 35967 ft | 470 kts | 283° |
| 2026-04-08 13:37 | -11.30379 | 127.44216 | 35964 ft | 470 kts | 283° |
| 2026-04-08 13:38 | -11.29024 | 127.37704 | 35967 ft | 470 kts | 283° |
| 2026-04-08 13:38 | -11.27677 | 127.31236 | 35967 ft | 470 kts | 283° |
| 2026-04-08 13:39 | -11.26319 | 127.24724 | 35962 ft | 470 kts | 283° |
| 2026-04-08 13:39 | -11.24959 | 127.18210 | 35965 ft | 470 kts | 283° |
| 2026-04-08 13:40 | -11.23598 | 127.11697 | 35964 ft | 470 kts | 283° |
| 2026-04-08 13:40 | -11.22234 | 127.05178 | 35965 ft | 471 kts | 283° |
| 2026-04-08 13:41 | -11.20878 | 126.98704 | 35966 ft | 471 kts | 283° |
| 2026-04-08 13:41 | -11.19509 | 126.92178 | 35971 ft | 471 kts | 283° |
| 2026-04-08 13:42 | -11.18139 | 126.85650 | 35967 ft | 471 kts | 283° |
| 2026-04-08 13:42 | -11.16668 | 126.79192 | 35973 ft | 471 kts | 288° |
| 2026-04-08 13:43 | -11.14661 | 126.72848 | 35973 ft | 471 kts | 289° |
| 2026-04-08 13:43 | -11.12664 | 126.66495 | 35975 ft | 471 kts | 289° |
| 2026-04-08 13:44 | -11.10666 | 126.60141 | 35974 ft | 471 kts | 289° |
| 2026-04-08 13:44 | -11.08662 | 126.53781 | 35976 ft | 472 kts | 289° |
| 2026-04-08 13:45 | -11.06671 | 126.47468 | 35978 ft | 472 kts | 289° |
| 2026-04-08 13:45 | -11.04664 | 126.41109 | 35976 ft | 472 kts | 289° |
| 2026-04-08 13:46 | -11.02656 | 126.34752 | 35978 ft | 472 kts | 289° |
| 2026-04-08 13:46 | -11.00661 | 126.28442 | 35977 ft | 471 kts | 289° |
| 2026-04-08 13:47 | -10.98651 | 126.22091 | 35980 ft | 471 kts | 289° |
| 2026-04-08 13:47 | -10.96643 | 126.15749 | 35981 ft | 471 kts | 289° |
| 2026-04-08 13:48 | -10.94633 | 126.09408 | 35977 ft | 471 kts | 288° |
| 2026-04-08 13:48 | -10.92623 | 126.03069 | 35976 ft | 471 kts | 288° |
| 2026-04-08 13:49 | -10.90625 | 125.96775 | 35974 ft | 470 kts | 288° |
| 2026-04-08 13:49 | -10.88615 | 125.90445 | 35974 ft | 470 kts | 288° |
| 2026-04-08 13:50 | -10.86604 | 125.84120 | 35973 ft | 470 kts | 288° |
| 2026-04-08 13:50 | -10.84591 | 125.77793 | 35971 ft | 470 kts | 288° |
| 2026-04-08 13:51 | -10.82590 | 125.71509 | 35969 ft | 470 kts | 288° |
| 2026-04-08 13:51 | -10.80575 | 125.65184 | 35968 ft | 470 kts | 288° |
| 2026-04-08 13:52 | -10.78558 | 125.58860 | 35969 ft | 470 kts | 288° |
| 2026-04-08 13:52 | -10.76540 | 125.52535 | 35973 ft | 470 kts | 288° |
| 2026-04-08 13:53 | -10.74533 | 125.46252 | 35972 ft | 470 kts | 288° |
| 2026-04-08 13:53 | -10.72510 | 125.39923 | 35973 ft | 471 kts | 288° |
| 2026-04-08 13:54 | -10.70486 | 125.33592 | 35975 ft | 471 kts | 288° |
| 2026-04-08 13:54 | -10.68459 | 125.27262 | 35977 ft | 471 kts | 288° |
| 2026-04-08 13:55 | -10.66430 | 125.20928 | 35979 ft | 471 kts | 288° |
| 2026-04-08 13:55 | -10.64411 | 125.14629 | 35977 ft | 472 kts | 288° |
| 2026-04-08 13:56 | -10.62364 | 125.08297 | 35975 ft | 472 kts | 289° |
| 2026-04-08 13:56 | -10.60296 | 125.01971 | 35981 ft | 472 kts | 289° |
| 2026-04-08 13:57 | -10.58229 | 124.95638 | 35983 ft | 472 kts | 289° |
| 2026-04-08 13:57 | -10.56176 | 124.89349 | 35977 ft | 472 kts | 289° |
| 2026-04-08 13:58 | -10.54107 | 124.83016 | 35979 ft | 472 kts | 289° |
| 2026-04-08 13:58 | -10.52038 | 124.76684 | 35980 ft | 472 kts | 289° |
| 2026-04-08 13:59 | -10.49967 | 124.70353 | 35982 ft | 472 kts | 289° |
| 2026-04-08 13:59 | -10.47899 | 124.64034 | 35981 ft | 471 kts | 289° |
| 2026-04-08 14:00 | -10.45844 | 124.57760 | 35982 ft | 471 kts | 289° |
| 2026-04-08 14:00 | -10.43774 | 124.51446 | 35976 ft | 471 kts | 289° |
| 2026-04-08 14:01 | -10.41705 | 124.45138 | 35976 ft | 470 kts | 289° |
| 2026-04-08 14:01 | -10.39651 | 124.38881 | 35975 ft | 470 kts | 289° |
| 2026-04-08 14:02 | -10.37583 | 124.32584 | 35973 ft | 470 kts | 289° |
| 2026-04-08 14:02 | -10.34484 | 124.23158 | 35975 ft | 469 kts | 289° |
| 2026-04-08 14:03 | -10.32432 | 124.16922 | 35974 ft | 468 kts | 289° |
| 2026-04-08 14:03 | -10.30367 | 124.10652 | 35973 ft | 468 kts | 289° |
| 2026-04-08 14:04 | -10.28302 | 124.04384 | 35972 ft | 468 kts | 289° |
| 2026-04-08 14:04 | -10.26236 | 123.98120 | 35971 ft | 468 kts | 289° |
| 2026-04-08 14:05 | -10.24168 | 123.91854 | 35975 ft | 468 kts | 289° |
| 2026-04-08 14:05 | -10.22098 | 123.85586 | 35983 ft | 468 kts | 289° |
| 2026-04-08 14:06 | -10.20041 | 123.79362 | 35986 ft | 469 kts | 289° |
| 2026-04-08 14:06 | -10.17966 | 123.73088 | 35991 ft | 469 kts | 289° |
| 2026-04-08 14:07 | -10.16397 | 123.66666 | 35986 ft | 470 kts | 278° |
| 2026-04-08 14:07 | -10.15657 | 123.60075 | 35990 ft | 470 kts | 277° |
| 2026-04-08 14:08 | -10.14920 | 123.53528 | 35989 ft | 470 kts | 277° |
| 2026-04-08 14:08 | -10.14177 | 123.46932 | 35988 ft | 470 kts | 277° |
| 2026-04-08 14:09 | -10.13434 | 123.40333 | 35986 ft | 471 kts | 277° |
| 2026-04-08 14:09 | -10.12695 | 123.33781 | 35984 ft | 470 kts | 277° |
| 2026-04-08 14:10 | -10.11950 | 123.27189 | 35984 ft | 470 kts | 277° |
| 2026-04-08 14:10 | -10.11204 | 123.20601 | 35980 ft | 470 kts | 277° |
| 2026-04-08 14:11 | -10.10457 | 123.14025 | 35979 ft | 469 kts | 277° |
| 2026-04-08 14:11 | -10.09710 | 123.07452 | 35976 ft | 468 kts | 277° |
| 2026-04-08 14:12 | -10.08967 | 123.00934 | 35974 ft | 468 kts | 277° |
| 2026-04-08 14:12 | -10.08219 | 122.94380 | 35969 ft | 468 kts | 277° |
| 2026-04-08 14:13 | -10.07596 | 122.88930 | 35966 ft | 467 kts | 277° |
| 2026-04-08 14:13 | -10.06847 | 122.82385 | 35965 ft | 467 kts | 277° |
| 2026-04-08 14:14 | -10.05599 | 122.71506 | 35961 ft | 467 kts | 277° |
| 2026-04-08 14:15 | -10.04973 | 122.66066 | 35962 ft | 467 kts | 277° |
| 2026-04-08 14:15 | -10.04219 | 122.59521 | 35961 ft | 467 kts | 277° |
| 2026-04-08 14:16 | -10.03463 | 122.52969 | 35967 ft | 467 kts | 277° |
| 2026-04-08 14:16 | -10.02706 | 122.46415 | 35970 ft | 468 kts | 277° |
| 2026-04-08 14:17 | -10.01946 | 122.39858 | 35973 ft | 468 kts | 277° |
| 2026-04-08 14:17 | -10.01191 | 122.33344 | 35974 ft | 468 kts | 277° |
| 2026-04-08 14:18 | -10.00428 | 122.26779 | 35982 ft | 469 kts | 277° |
| 2026-04-08 14:18 | -9.99663 | 122.20213 | 35978 ft | 469 kts | 277° |
| 2026-04-08 14:19 | -9.98897 | 122.13643 | 35982 ft | 469 kts | 277° |
| 2026-04-08 14:19 | -9.98136 | 122.07123 | 35986 ft | 469 kts | 277° |
| 2026-04-08 14:20 | -9.97367 | 122.00557 | 35980 ft | 469 kts | 277° |
| 2026-04-08 14:20 | -9.96598 | 121.93992 | 35983 ft | 468 kts | 277° |
| 2026-04-08 14:21 | -9.95828 | 121.87433 | 35980 ft | 468 kts | 277° |
| 2026-04-08 14:21 | -9.95062 | 121.80921 | 35983 ft | 468 kts | 277° |
| 2026-04-08 14:22 | -9.94290 | 121.74370 | 35980 ft | 467 kts | 277° |
| 2026-04-08 14:22 | -9.93518 | 121.67828 | 35975 ft | 467 kts | 277° |
| 2026-04-08 14:23 | -9.92745 | 121.61292 | 35974 ft | 467 kts | 277° |
| 2026-04-08 14:23 | -9.91972 | 121.54761 | 35974 ft | 466 kts | 277° |
| 2026-04-08 14:24 | -9.91203 | 121.48283 | 35973 ft | 466 kts | 277° |
| 2026-04-08 14:24 | -9.90429 | 121.41762 | 35975 ft | 465 kts | 277° |
| 2026-04-08 14:25 | -9.89654 | 121.35251 | 35970 ft | 465 kts | 277° |
| 2026-04-08 14:25 | -9.88878 | 121.28740 | 35969 ft | 465 kts | 277° |
| 2026-04-08 14:26 | -9.88101 | 121.22236 | 35969 ft | 465 kts | 277° |
| 2026-04-08 14:26 | -9.87328 | 121.15773 | 35970 ft | 465 kts | 277° |
| 2026-04-08 14:27 | -9.86549 | 121.09274 | 35969 ft | 465 kts | 277° |
| 2026-04-08 14:27 | -9.85768 | 121.02769 | 35969 ft | 464 kts | 277° |
| 2026-04-08 14:28 | -9.84987 | 120.96266 | 35974 ft | 465 kts | 277° |
| 2026-04-08 14:28 | -9.84209 | 120.89809 | 35973 ft | 465 kts | 277° |
| 2026-04-08 14:29 | -9.83425 | 120.83308 | 35981 ft | 465 kts | 277° |
| 2026-04-08 14:29 | -9.82639 | 120.76802 | 35985 ft | 465 kts | 277° |
| 2026-04-08 14:30 | -9.81852 | 120.70299 | 35990 ft | 465 kts | 277° |
| 2026-04-08 14:30 | -9.81065 | 120.63797 | 35987 ft | 465 kts | 277° |
| 2026-04-08 14:31 | -9.80280 | 120.57331 | 35998 ft | 465 kts | 277° |
| 2026-04-08 14:31 | -9.79489 | 120.50823 | 36003 ft | 465 kts | 277° |
| 2026-04-08 14:32 | -9.78697 | 120.44317 | 36008 ft | 465 kts | 277° |
| 2026-04-08 14:32 | -9.77903 | 120.37807 | 36011 ft | 465 kts | 277° |
| 2026-04-08 14:33 | -9.77113 | 120.31346 | 36009 ft | 465 kts | 277° |
| 2026-04-08 14:33 | -9.76317 | 120.24838 | 36017 ft | 465 kts | 277° |
| 2026-04-08 14:34 | -9.75521 | 120.18340 | 36015 ft | 465 kts | 277° |
| 2026-04-08 14:34 | -9.74724 | 120.11843 | 36014 ft | 464 kts | 277° |
| 2026-04-08 14:35 | -9.73926 | 120.05351 | 36012 ft | 464 kts | 277° |
| 2026-04-08 14:35 | -9.73133 | 119.98913 | 36009 ft | 464 kts | 277° |
| 2026-04-08 14:36 | -9.72334 | 119.92429 | 36008 ft | 463 kts | 277° |
| 2026-04-08 14:36 | -9.71532 | 119.85948 | 36009 ft | 463 kts | 277° |
| 2026-04-08 14:37 | -9.70731 | 119.79469 | 36007 ft | 464 kts | 277° |
| 2026-04-08 14:37 | -9.69928 | 119.72982 | 36009 ft | 464 kts | 277° |
| 2026-04-08 14:38 | -9.69129 | 119.66544 | 35997 ft | 463 kts | 277° |
| 2026-04-08 14:38 | -9.68324 | 119.60067 | 35995 ft | 463 kts | 277° |
| 2026-04-08 14:39 | -9.67518 | 119.53593 | 35996 ft | 463 kts | 277° |
| 2026-04-08 14:39 | -9.66711 | 119.47117 | 35993 ft | 463 kts | 277° |
| 2026-04-08 14:40 | -9.65904 | 119.40648 | 35986 ft | 463 kts | 277° |
| 2026-04-08 14:40 | -9.65100 | 119.34227 | 35988 ft | 463 kts | 277° |
| 2026-04-08 14:41 | -9.64290 | 119.27757 | 35993 ft | 463 kts | 277° |
| 2026-04-08 14:41 | -9.63479 | 119.21292 | 35993 ft | 462 kts | 278° |
| 2026-04-08 14:42 | -9.62667 | 119.14829 | 35993 ft | 462 kts | 278° |
| 2026-04-08 14:42 | -9.61860 | 119.08414 | 35991 ft | 462 kts | 278° |
| 2026-04-08 14:43 | -9.61046 | 119.01953 | 35991 ft | 462 kts | 278° |
| 2026-04-08 14:43 | -9.60232 | 118.95502 | 35984 ft | 462 kts | 278° |
| 2026-04-08 14:44 | -9.59417 | 118.89052 | 35985 ft | 461 kts | 278° |
| 2026-04-08 14:44 | -9.58606 | 118.82652 | 35981 ft | 461 kts | 278° |
| 2026-04-08 14:45 | -9.57790 | 118.76210 | 35981 ft | 461 kts | 278° |
| 2026-04-08 14:45 | -9.56973 | 118.69774 | 35979 ft | 460 kts | 278° |
| 2026-04-08 14:46 | -9.56155 | 118.63345 | 35973 ft | 460 kts | 278° |
| 2026-04-08 14:46 | -9.55336 | 118.56916 | 35973 ft | 460 kts | 278° |
| 2026-04-08 14:47 | -9.54523 | 118.50536 | 35978 ft | 460 kts | 278° |
| 2026-04-08 14:47 | -9.53702 | 118.44113 | 35978 ft | 460 kts | 278° |
| 2026-04-08 14:48 | -9.52881 | 118.37695 | 35977 ft | 459 kts | 278° |
| 2026-04-08 14:48 | -9.52059 | 118.31277 | 35974 ft | 459 kts | 278° |
| 2026-04-08 14:49 | -9.51241 | 118.24903 | 35979 ft | 459 kts | 278° |
| 2026-04-08 14:49 | -9.50418 | 118.18492 | 35978 ft | 459 kts | 278° |
| 2026-04-08 14:50 | -9.49592 | 118.12076 | 35975 ft | 459 kts | 278° |
| 2026-04-08 14:50 | -9.48766 | 118.05660 | 35841 ft | 460 kts | 278° |